createdAt,value
2018-10-05T00:03:26.107Z,85.10
2018-10-05T00:07:30.168Z,85.30
2018-10-05T00:11:33.537Z,85.10
2018-10-05T00:15:36.944Z,85.30
2018-10-05T00:19:40.536Z,85.00
2018-10-05T00:23:48.307Z,84.90
2018-10-05T00:27:51.708Z,85.50
2018-10-05T00:31:55.069Z,85.00
2018-10-05T00:35:58.629Z,84.90
2018-10-05T00:40:02.133Z,84.80
2018-10-05T00:44:05.534Z,85.10
2018-10-05T00:48:08.908Z,85.20
2018-10-05T00:52:12.269Z,85.70
2018-10-05T00:56:17.288Z,86.70
2018-10-05T01:00:20.832Z,86.10
2018-10-05T01:04:24.190Z,85.60
2018-10-05T01:08:27.551Z,85.90
2018-10-05T01:12:30.936Z,86.30
2018-10-05T01:16:34.382Z,86.60
2018-10-05T01:20:37.785Z,86.10
2018-10-05T01:24:41.201Z,86.90
2018-10-05T01:28:44.544Z,86.20
2018-10-05T01:32:47.908Z,85.60
2018-10-05T01:36:51.276Z,85.30
2018-10-05T01:40:54.648Z,85.40
2018-10-05T01:44:58.072Z,86.10
2018-10-05T01:49:01.424Z,85.90
2018-10-05T01:53:04.784Z,85.50
2018-10-05T01:57:08.172Z,85.60
2018-10-05T02:01:11.512Z,85.90
2018-10-05T02:05:14.881Z,85.50
2018-10-05T02:09:18.235Z,85.80
2018-10-05T02:13:21.629Z,85.30
2018-10-05T02:17:25.590Z,86.20
2018-10-05T02:21:28.947Z,86.00
2018-10-05T02:25:32.307Z,86.20
2018-10-05T02:29:35.664Z,85.90
2018-10-05T02:33:39.564Z,85.80
2018-10-05T02:37:42.932Z,87.10
2018-10-05T02:41:46.357Z,86.90
2018-10-05T02:45:49.663Z,86.50
2018-10-05T02:49:53.021Z,86.60
2018-10-05T02:53:56.379Z,86.30
2018-10-05T02:57:59.756Z,85.60
2018-10-05T03:02:14.449Z,85.50
2018-10-05T03:06:17.883Z,86.40
2018-10-05T03:10:21.256Z,86.30
2018-10-05T03:14:24.635Z,86.20
2018-10-05T03:18:28.010Z,86.40
2018-10-05T03:22:31.392Z,86.00
2018-10-05T03:26:34.747Z,86.50
2018-10-05T03:30:38.226Z,86.00
2018-10-05T03:34:41.595Z,86.20
2018-10-05T03:38:44.980Z,86.10
2018-10-05T03:42:48.339Z,86.50
2018-10-05T03:46:51.708Z,86.80
2018-10-05T03:50:55.096Z,86.30
2018-10-05T03:54:58.546Z,87.10
2018-10-05T03:59:01.952Z,87.10
2018-10-05T04:03:05.360Z,86.70
2018-10-05T04:07:09.449Z,87.40
2018-10-05T04:11:12.921Z,87.20
2018-10-05T04:15:16.449Z,86.10
2018-10-05T04:19:19.854Z,87.20
2018-10-05T04:23:23.278Z,85.80
2018-10-05T04:27:26.951Z,85.60
2018-10-05T04:31:30.347Z,85.80
2018-10-05T04:35:33.748Z,85.90
2018-10-05T04:39:37.161Z,86.20
2018-10-05T04:43:40.641Z,87.60
2018-10-05T04:47:44.084Z,87.40
2018-10-05T04:51:47.993Z,87.80
2018-10-05T04:55:51.350Z,87.20
2018-10-05T04:59:54.715Z,86.70
2018-10-05T05:03:58.072Z,87.10
2018-10-05T05:08:01.448Z,87.00
2018-10-05T05:12:04.898Z,87.20
2018-10-05T05:16:08.459Z,86.90
2018-10-05T05:20:11.820Z,87.70
2018-10-05T05:24:16.369Z,87.70
2018-10-05T05:28:19.837Z,87.00
2018-10-05T05:32:23.298Z,86.80
2018-10-05T05:36:33.308Z,85.60
2018-10-05T05:40:36.744Z,85.60
2018-10-05T05:44:40.102Z,85.80
2018-10-05T05:48:44.000Z,85.90
2018-10-05T05:52:47.375Z,87.10
2018-10-05T05:56:50.820Z,87.20
2018-10-05T06:00:54.308Z,86.40
2018-10-05T06:04:57.755Z,85.80
2018-10-05T06:09:01.107Z,86.10
2018-10-05T06:13:04.604Z,86.10
2018-10-05T06:17:08.052Z,87.00
2018-10-05T06:21:11.441Z,86.80
2018-10-05T06:25:14.809Z,86.90
2018-10-05T06:29:18.210Z,86.30
2018-10-05T06:33:21.670Z,88.00
2018-10-05T06:37:28.116Z,86.60
2018-10-05T06:41:31.509Z,88.60
2018-10-05T06:45:34.936Z,88.80
2018-10-05T06:49:38.377Z,90.50
2018-10-05T06:53:41.784Z,91.50
2018-10-05T06:57:45.199Z,89.20
2018-10-05T07:01:48.603Z,87.00
2018-10-05T07:05:51.978Z,87.60
2018-10-05T07:09:55.313Z,90.60
2018-10-05T07:13:58.685Z,87.00
2018-10-05T07:18:02.031Z,86.70
2018-10-05T07:22:05.387Z,85.40
2018-10-05T07:26:08.769Z,86.00
2018-10-05T07:30:12.220Z,85.00
2018-10-05T07:34:15.600Z,86.90
2018-10-05T07:38:18.944Z,86.90
2018-10-05T07:42:22.299Z,83.50
2018-10-05T07:46:25.653Z,83.80
2018-10-05T07:50:29.032Z,83.70
2018-10-05T07:54:32.393Z,83.90
2018-10-05T07:58:35.763Z,82.20
2018-10-05T08:02:39.161Z,82.10
2018-10-05T08:06:42.531Z,81.50
2018-10-05T08:10:45.953Z,80.70
2018-10-05T08:14:49.336Z,80.70
2018-10-05T08:18:52.692Z,79.10
2018-10-05T08:22:56.085Z,78.80
2018-10-05T08:26:59.477Z,78.90
2018-10-05T08:31:02.837Z,78.40
2018-10-05T08:35:06.230Z,77.80
2018-10-05T08:43:14.189Z,75.10
2018-10-05T08:47:17.572Z,75.90
2018-10-05T08:51:21.045Z,74.60
2018-10-05T08:55:24.420Z,71.10
2018-10-05T08:59:27.791Z,72.50
2018-10-05T10:12:31.130Z,66.20
2018-10-05T10:16:34.863Z,64.50
2018-10-05T10:20:38.223Z,62.80
2018-10-05T10:24:41.601Z,66.00
2018-10-05T10:28:45.285Z,56.40
2018-10-05T10:32:48.361Z,59.90
2018-10-05T10:36:51.759Z,64.00
2018-10-05T10:40:55.124Z,55.50
2018-10-05T10:49:01.588Z,63.50
2018-10-05T10:53:05.030Z,54.80
2018-10-05T10:57:08.329Z,60.50
2018-10-05T11:01:11.688Z,62.00
2018-10-05T11:05:15.080Z,60.40
2018-10-05T11:09:18.441Z,61.80
2018-10-05T11:17:24.940Z,61.10
2018-10-05T11:21:28.295Z,62.50
2018-10-05T11:25:31.666Z,62.20
2018-10-05T11:29:35.146Z,60.40
2018-10-05T12:42:33.521Z,53.20
2018-10-05T12:46:37.537Z,54.50
2018-10-05T12:50:41.765Z,52.00
2018-10-05T12:54:45.134Z,57.40
2018-10-05T12:58:48.521Z,57.80
2018-10-05T13:02:52.137Z,50.60
2018-10-05T13:06:55.525Z,62.90
2018-10-05T13:10:58.892Z,56.80
2018-10-05T13:15:02.298Z,56.80
2018-10-05T13:19:06.765Z,56.80
2018-10-05T13:23:10.128Z,60.40
2018-10-05T13:27:13.492Z,51.10
2018-10-05T13:31:16.877Z,58.30
2018-10-05T13:35:20.405Z,60.30
2018-10-05T13:39:23.747Z,65.40
2018-10-05T13:43:27.114Z,57.60
2018-10-05T13:47:30.475Z,62.60
2018-10-05T13:51:34.600Z,55.70
2018-10-05T13:55:38.217Z,55.60
2018-10-05T13:59:41.725Z,64.80
2018-10-05T14:03:45.089Z,65.00
2018-10-05T14:07:48.456Z,62.20
2018-10-05T14:11:51.833Z,67.70
2018-10-05T14:15:55.340Z,65.70
2018-10-05T14:19:58.687Z,65.40
2018-10-05T14:24:02.259Z,64.70
2018-10-05T14:28:05.674Z,63.30
2018-10-05T14:32:09.857Z,60.20
2018-10-05T14:36:13.236Z,63.30
2018-10-05T14:40:16.693Z,57.60
2018-10-05T14:44:20.135Z,61.70
2018-10-05T14:48:23.533Z,61.60
2018-10-05T16:09:29.648Z,49.60
2018-10-05T16:13:33.025Z,55.00
2018-10-05T16:17:36.826Z,56.20
2018-10-05T16:21:40.208Z,59.00
2018-10-05T16:25:43.564Z,54.30
2018-10-05T16:29:46.925Z,57.80
2018-10-05T16:33:50.286Z,57.00
2018-10-05T16:37:54.360Z,59.40
2018-10-05T16:41:58.055Z,57.70
2018-10-05T16:46:01.497Z,60.40
2018-10-05T16:50:04.974Z,62.50
2018-10-05T16:54:08.323Z,60.40
2018-10-05T16:58:12.673Z,59.30
2018-10-05T17:02:16.037Z,61.90
2018-10-05T17:06:19.373Z,64.00
2018-10-05T17:10:22.785Z,62.20
2018-10-05T17:14:26.141Z,60.50
2018-10-05T17:18:29.527Z,60.10
2018-10-05T17:22:32.901Z,62.40
2018-10-05T17:26:36.474Z,63.10
2018-10-05T17:30:41.297Z,62.90
2018-10-05T17:34:44.682Z,63.80
2018-10-05T17:38:48.153Z,63.40
2018-10-05T17:42:51.557Z,62.30
2018-10-05T17:46:54.904Z,65.30
2018-10-05T17:50:58.779Z,65.40
2018-10-05T17:55:02.549Z,65.30
2018-10-05T18:03:08.990Z,63.90
2018-10-05T18:07:12.380Z,65.70
2018-10-05T18:11:15.744Z,66.00
2018-10-05T18:15:19.128Z,63.70
2018-10-05T18:19:22.510Z,66.40
2018-10-05T18:23:25.884Z,65.50
2018-10-05T18:27:29.468Z,64.90
2018-10-05T18:31:32.831Z,65.20
2018-10-05T18:35:36.198Z,66.20
2018-10-05T18:39:39.565Z,67.60
2018-10-05T18:43:42.935Z,67.50
2018-10-05T18:47:46.264Z,65.70
2018-10-05T18:51:51.316Z,67.70
2018-10-05T18:55:54.704Z,66.70
2018-10-05T18:59:58.076Z,67.30
2018-10-05T19:04:01.487Z,66.80
2018-10-05T19:08:07.482Z,66.90
2018-10-05T19:12:11.859Z,67.00
2018-10-05T19:16:15.297Z,67.40
2018-10-05T19:20:18.640Z,68.80
2018-10-05T19:24:22.016Z,68.60
2018-10-05T19:28:25.376Z,68.60
2018-10-05T19:32:28.739Z,68.70
2018-10-05T19:36:32.182Z,68.70
2018-10-05T19:40:35.553Z,69.10
2018-10-05T19:44:38.904Z,68.80
2018-10-05T19:48:42.284Z,69.10
2018-10-05T19:52:45.916Z,69.30
2018-10-05T19:56:49.264Z,69.20
2018-10-05T20:00:52.614Z,69.10
2018-10-05T20:04:56.871Z,69.30
2018-10-05T20:09:00.217Z,69.40
2018-10-05T20:13:03.616Z,69.60
2018-10-05T20:17:07.040Z,69.50
2018-10-05T20:21:10.969Z,69.90
2018-10-05T20:25:15.152Z,69.80
2018-10-05T20:29:20.312Z,69.60
2018-10-05T20:33:24.241Z,69.80
2018-10-05T20:37:27.811Z,70.00
2018-10-05T20:41:31.014Z,70.30
2018-10-05T20:45:34.399Z,69.80
2018-10-05T20:49:37.784Z,70.20
2018-10-05T20:53:41.138Z,70.30
2018-10-05T20:57:44.511Z,71.20
2018-10-05T21:01:47.904Z,72.20
2018-10-05T21:05:51.273Z,71.30
2018-10-05T21:09:54.649Z,72.00
2018-10-05T21:13:58.635Z,71.20
2018-10-05T21:18:02.071Z,71.00
2018-10-05T21:22:06.092Z,71.20
2018-10-05T21:26:09.472Z,71.70
2018-10-05T21:30:12.901Z,71.40
2018-10-05T21:34:16.392Z,71.10
2018-10-05T21:38:19.876Z,71.30
2018-10-05T21:42:26.597Z,73.70
2018-10-05T21:46:30.002Z,79.20
2018-10-05T21:50:33.510Z,74.50
2018-10-05T21:54:36.856Z,74.30
2018-10-05T21:58:40.241Z,73.50
2018-10-05T22:02:43.633Z,72.60
2018-10-05T22:06:47.026Z,72.20
2018-10-05T22:10:50.423Z,71.80
2018-10-05T22:14:53.920Z,71.80
2018-10-05T22:18:57.288Z,72.70
2018-10-05T22:23:00.680Z,72.20
2018-10-05T22:27:04.082Z,72.60
2018-10-05T22:31:07.453Z,72.60
2018-10-05T22:35:10.878Z,73.80
2018-10-05T22:39:14.257Z,74.50
2018-10-05T22:43:17.627Z,73.80
2018-10-05T22:47:21.004Z,73.10
2018-10-05T22:51:24.372Z,74.80
2018-10-05T22:55:27.749Z,74.10
2018-10-05T22:59:31.132Z,74.10
2018-10-05T23:03:35.707Z,74.10
2018-10-05T23:07:39.061Z,73.20
2018-10-05T23:11:42.434Z,73.60
2018-10-05T23:15:46.632Z,75.80
2018-10-05T23:19:49.992Z,76.30
2018-10-05T23:23:53.380Z,74.50
2018-10-05T23:27:56.827Z,75.10
2018-10-05T23:32:00.214Z,73.50
2018-10-05T23:36:03.541Z,73.80
2018-10-05T23:40:07.594Z,74.10
2018-10-05T23:44:11.001Z,74.50
2018-10-05T23:48:14.964Z,73.60
2018-10-05T23:52:29.556Z,73.80
2018-10-05T23:56:33.005Z,73.40
